createdAt,value
2023-01-13T00:54:25.745Z,95142.00
2023-01-13T00:55:26.711Z,95140.00
2023-01-13T00:56:39.615Z,95135.00
2023-01-13T00:57:26.685Z,95131.00
2023-01-13T00:58:26.685Z,95135.00
2023-01-13T00:59:26.666Z,95133.00
2023-01-13T01:00:26.663Z,95133.00
2023-01-13T01:01:26.785Z,95133.00
2023-01-13T01:02:26.684Z,95137.00
2023-01-13T01:03:26.635Z,95142.00
2023-01-13T01:04:26.621Z,95144.00
2023-01-13T01:05:26.613Z,95144.00
2023-01-13T01:06:26.618Z,95142.00
2023-01-13T01:07:26.597Z,95140.00
2023-01-13T01:08:26.589Z,95140.00
2023-01-13T01:09:26.572Z,95146.00
2023-01-13T01:10:26.587Z,95162.00
2023-01-13T01:11:26.586Z,95170.00
2023-01-13T01:12:26.560Z,95174.00
2023-01-13T01:13:26.547Z,95176.00
2023-01-13T01:14:26.532Z,95174.00
2023-01-13T01:15:26.525Z,95172.00
2023-01-13T01:16:26.619Z,95174.00
2023-01-13T01:17:26.506Z,95176.00
2023-01-13T01:18:26.512Z,95174.00
2023-01-13T01:19:26.484Z,95174.00
2023-01-13T01:20:26.491Z,95174.00
2023-01-13T01:21:26.477Z,95172.00
2023-01-13T01:22:26.516Z,95176.00
2023-01-13T01:23:26.456Z,95178.00
2023-01-13T01:24:26.455Z,95174.00
2023-01-13T01:25:26.431Z,95170.00
2023-01-13T01:26:26.465Z,95166.00
2023-01-13T01:27:26.412Z,95166.00
2023-01-13T01:28:26.408Z,95166.00
2023-01-13T01:29:26.409Z,95164.00
2023-01-13T01:30:26.393Z,95166.00
2023-01-13T01:31:26.436Z,95166.00
2023-01-13T01:32:26.369Z,95164.00
2023-01-13T01:33:26.363Z,95164.00
2023-01-13T01:34:26.354Z,95162.00
2023-01-13T01:35:26.341Z,95162.00
2023-01-13T01:36:26.337Z,95158.00
2023-01-13T01:37:26.328Z,95158.00
2023-01-13T01:38:26.326Z,95158.00
2023-01-13T01:39:26.323Z,95156.00
2023-01-13T01:40:26.302Z,95154.00
2023-01-13T01:41:26.293Z,95154.00
2023-01-13T01:42:26.308Z,95154.00
2023-01-13T01:43:26.280Z,95154.00
2023-01-13T01:44:26.272Z,95154.00
2023-01-13T01:45:26.258Z,95146.00
2023-01-13T01:46:26.292Z,95144.00
2023-01-13T01:47:26.236Z,95142.00
2023-01-13T01:48:26.227Z,95140.00
2023-01-13T01:49:26.223Z,95146.00
2023-01-13T01:50:26.223Z,95144.00
2023-01-13T01:51:26.206Z,95146.00
2023-01-13T01:52:26.213Z,95142.00
2023-01-13T01:53:26.181Z,95146.00
2023-01-13T01:54:26.173Z,95154.00
2023-01-13T01:55:26.177Z,95146.00
2023-01-13T01:56:26.158Z,95154.00
2023-01-13T01:57:26.147Z,95158.00
2023-01-13T01:58:26.164Z,95156.00
2023-01-13T01:59:26.128Z,95156.00
2023-01-13T02:00:26.117Z,95160.00
2023-01-13T02:01:26.229Z,95160.00
2023-01-13T02:02:26.210Z,95162.00
2023-01-13T02:03:26.103Z,95158.00
2023-01-13T02:04:26.084Z,95158.00
2023-01-13T02:05:26.073Z,95154.00
2023-01-13T02:06:26.107Z,95158.00
2023-01-13T02:07:26.056Z,95146.00
2023-01-13T02:08:26.048Z,95154.00
2023-01-13T02:09:26.033Z,95146.00
2023-01-13T02:10:26.031Z,95146.00
2023-01-13T02:11:26.019Z,95146.00
2023-01-13T02:12:26.016Z,95146.00
2023-01-13T02:13:25.999Z,95146.00
2023-01-13T02:14:26.010Z,95142.00
2023-01-13T02:15:25.980Z,95144.00
2023-01-13T02:16:26.050Z,95140.00
2023-01-13T02:17:25.969Z,95139.00
2023-01-13T02:18:25.962Z,95139.00
2023-01-13T02:19:25.946Z,95139.00
2023-01-13T02:20:25.928Z,95139.00
2023-01-13T02:21:25.925Z,95135.00
2023-01-13T02:22:25.911Z,95137.00
2023-01-13T02:23:25.909Z,95139.00
2023-01-13T02:24:25.897Z,95137.00
2023-01-13T02:25:25.897Z,95137.00
2023-01-13T02:26:25.878Z,95135.00
2023-01-13T02:27:25.872Z,95137.00
2023-01-13T02:28:25.868Z,95133.00
2023-01-13T02:29:25.847Z,95135.00
2023-01-13T02:30:25.861Z,95135.00
2023-01-13T02:31:25.951Z,95135.00
2023-01-13T02:32:25.825Z,95135.00
2023-01-13T02:33:25.816Z,95131.00
2023-01-13T02:34:25.810Z,95123.00
2023-01-13T02:35:25.798Z,95117.00
2023-01-13T02:36:25.794Z,95119.00
2023-01-13T02:37:25.772Z,95115.00
2023-01-13T02:38:25.785Z,95115.00
2023-01-13T02:39:25.763Z,95115.00
2023-01-13T02:40:25.749Z,95117.00
2023-01-13T02:41:25.749Z,95115.00
2023-01-13T02:42:25.731Z,95113.00
2023-01-13T02:43:25.724Z,95119.00
2023-01-13T02:44:25.710Z,95117.00
2023-01-13T02:45:25.775Z,95115.00
2023-01-13T02:46:25.716Z,95111.00
2023-01-13T02:47:25.695Z,95107.00
2023-01-13T02:48:25.678Z,95105.00
2023-01-13T02:49:25.671Z,95105.00
2023-01-13T02:50:25.663Z,95109.00
2023-01-13T02:51:25.687Z,95115.00
2023-01-13T02:52:25.643Z,95119.00
2023-01-13T02:53:25.632Z,95121.00
2023-01-13T02:54:25.622Z,95121.00
2023-01-13T02:55:25.618Z,95123.00
2023-01-13T02:56:25.608Z,95123.00
2023-01-13T02:57:25.604Z,95121.00
2023-01-13T02:58:25.591Z,95121.00
2023-01-13T02:59:25.578Z,95129.00
2023-01-13T03:00:25.641Z,95127.00
2023-01-13T03:01:25.694Z,95131.00
2023-01-13T03:02:25.615Z,95131.00
2023-01-13T03:03:25.548Z,95129.00
2023-01-13T03:04:25.541Z,95127.00
2023-01-13T03:05:25.528Z,95121.00
2023-01-13T03:06:25.520Z,95119.00
2023-01-13T03:07:25.515Z,95119.00
2023-01-13T03:08:25.512Z,95115.00
2023-01-13T03:09:25.496Z,95117.00
2023-01-13T03:10:25.531Z,95113.00
2023-01-13T03:11:25.489Z,95113.00
2023-01-13T03:12:25.475Z,95111.00
2023-01-13T03:13:25.460Z,95109.00
2023-01-13T03:14:25.456Z,95109.00
2023-01-13T03:15:25.446Z,95107.00
2023-01-13T03:16:25.487Z,95105.00
2023-01-13T03:17:25.429Z,95101.00
2023-01-13T03:18:25.484Z,95105.00
2023-01-13T03:19:25.406Z,95105.00
2023-01-13T03:20:25.400Z,95105.00
2023-01-13T03:21:25.397Z,95107.00
2023-01-13T03:22:25.381Z,95103.00
2023-01-13T03:23:25.374Z,95101.00
2023-01-13T03:24:25.365Z,95097.00
2023-01-13T03:25:25.364Z,95095.00
2023-01-13T04:18:24.876Z,95113.00
2023-01-13T04:47:24.612Z,95084.00
2023-01-13T05:32:24.200Z,95093.00
2023-01-13T06:30:23.701Z,95046.00
2023-01-13T06:42:22.580Z,95017.00
2023-01-13T06:58:23.468Z,95033.00
2023-01-13T06:59:23.402Z,95035.00
2023-01-13T07:15:23.517Z,95037.00
2023-01-13T07:45:22.988Z,95011.00
2023-01-13T07:48:22.976Z,95017.00
2023-01-13T07:51:22.925Z,95021.00
2023-01-13T07:53:22.984Z,95021.00
2023-01-13T07:56:22.979Z,95019.00
2023-01-13T07:59:22.982Z,95023.00
2023-01-13T08:10:23.162Z,95029.00
2023-01-13T08:29:22.621Z,95023.00
2023-01-13T08:39:22.600Z,95025.00
2023-01-13T08:40:21.484Z,95027.00
2023-01-13T08:41:22.468Z,95031.00
2023-01-13T08:44:22.518Z,95038.00
2023-01-13T08:48:22.603Z,95037.00
2023-01-13T08:50:22.412Z,95040.00
2023-01-13T08:53:22.537Z,95050.00
2023-01-13T09:11:22.550Z,95058.00
2023-01-13T09:30:22.051Z,95033.00
2023-01-13T09:37:22.054Z,95021.00
2023-01-13T09:42:22.135Z,95019.00
2023-01-13T09:47:22.068Z,95029.00
2023-01-13T09:49:21.880Z,95025.00
2023-01-13T09:51:22.061Z,95025.00
2023-01-13T09:57:22.066Z,95021.00
2023-01-13T09:58:21.896Z,95019.00
2023-01-13T10:13:21.655Z,95021.00
2023-01-13T10:24:21.522Z,94993.00
2023-01-13T10:26:21.611Z,94990.00
2023-01-13T10:28:21.486Z,94982.00
2023-01-13T10:29:21.489Z,94984.00
2023-01-13T10:30:21.623Z,94984.00
2023-01-13T10:31:21.545Z,94982.00
2023-01-13T10:32:21.443Z,94978.00
2023-01-13T10:33:21.454Z,94972.00
2023-01-13T10:34:21.434Z,94970.00
2023-01-13T10:35:21.543Z,94970.00
2023-01-13T10:36:21.571Z,94964.00
2023-01-13T10:37:21.556Z,94966.00
2023-01-13T10:40:21.375Z,94958.00
2023-01-13T10:41:21.371Z,94960.00
2023-01-13T10:42:21.555Z,94964.00
2023-01-13T10:43:21.345Z,94962.00
2023-01-13T10:44:21.348Z,94960.00
2023-01-13T10:45:21.351Z,94958.00
2023-01-13T10:47:21.565Z,94950.00
2023-01-13T10:48:21.334Z,94950.00
2023-01-13T10:50:21.302Z,94946.00
2023-01-13T10:51:21.299Z,94946.00
2023-01-13T10:54:21.305Z,94952.00
2023-01-13T10:56:21.585Z,94948.00
2023-01-13T10:57:21.238Z,94946.00
2023-01-13T11:00:21.487Z,94950.00
2023-01-13T11:01:21.727Z,94950.00
2023-01-13T11:03:21.205Z,94948.00
2023-01-13T11:05:21.180Z,94950.00
2023-01-13T11:06:21.170Z,94950.00
2023-01-13T11:07:21.137Z,94944.00
2023-01-13T11:11:36.722Z,94927.00
2023-01-13T11:14:21.119Z,94929.00
2023-01-13T11:15:21.124Z,94927.00
2023-01-13T11:16:21.234Z,94929.00
2023-01-13T11:17:21.084Z,94931.00
2023-01-13T11:19:21.254Z,94939.00
2023-01-13T11:20:21.062Z,94933.00
2023-01-13T11:21:21.062Z,94931.00
2023-01-13T11:22:21.100Z,94935.00
2023-01-13T11:23:21.092Z,94929.00
2023-01-13T11:24:20.993Z,94925.00
2023-01-13T11:25:20.976Z,94923.00
2023-01-13T11:26:20.976Z,94923.00
2023-01-13T11:27:20.975Z,94921.00
2023-01-13T11:28:21.075Z,94915.00
2023-01-13T11:29:20.952Z,94917.00
2023-01-13T11:30:20.948Z,94917.00
2023-01-13T11:31:20.998Z,94915.00
2023-01-13T11:32:20.919Z,94913.00
2023-01-13T11:33:20.913Z,94913.00
2023-01-13T11:34:20.937Z,94915.00
2023-01-13T11:35:20.914Z,94915.00
2023-01-13T11:36:20.964Z,94913.00
2023-01-13T11:38:20.856Z,94915.00
2023-01-13T11:39:21.083Z,94915.00
2023-01-13T11:40:20.847Z,94915.00
2023-01-13T11:41:21.089Z,94917.00
2023-01-13T11:42:21.088Z,94913.00
2023-01-13T11:43:20.837Z,94915.00
2023-01-13T11:44:20.804Z,94909.00
2023-01-13T11:45:20.795Z,94911.00
2023-01-13T11:46:20.823Z,94909.00
2023-01-13T11:47:21.139Z,94913.00
2023-01-13T11:48:20.768Z,94909.00
2023-01-13T11:49:22.401Z,94903.00
2023-01-13T11:50:20.785Z,94901.00
2023-01-13T11:51:20.743Z,94890.00
2023-01-13T11:52:21.092Z,94888.00
2023-01-13T11:53:20.720Z,94886.00
2023-01-13T11:54:21.088Z,94884.00
2023-01-13T11:55:22.652Z,94880.00
2023-01-13T11:56:20.721Z,94882.00
2023-01-13T11:57:20.687Z,94884.00
2023-01-13T11:58:20.685Z,94880.00
2023-01-13T11:59:20.670Z,94880.00
2023-01-13T12:00:20.682Z,94880.00
2023-01-13T12:01:23.279Z,94880.00
2023-01-13T12:02:20.701Z,94874.00
2023-01-13T12:03:20.731Z,94876.00
2023-01-13T12:05:20.623Z,94884.00
2023-01-13T12:06:20.634Z,94880.00
2023-01-13T12:07:23.021Z,94878.00
2023-01-13T12:08:20.596Z,94880.00
2023-01-13T12:09:20.605Z,94878.00
2023-01-13T12:10:20.564Z,94878.00
2023-01-13T12:11:20.560Z,94882.00
2023-01-13T12:12:20.559Z,94886.00
2023-01-13T12:13:20.573Z,94886.00
2023-01-13T12:14:20.595Z,94884.00
2023-01-13T12:16:20.592Z,94882.00
2023-01-13T12:17:20.495Z,94878.00
2023-01-13T12:18:20.499Z,94880.00
2023-01-13T12:19:20.600Z,94882.00
2023-01-13T12:20:20.488Z,94884.00
2023-01-13T12:21:20.472Z,94884.00
2023-01-13T12:22:20.482Z,94886.00
2023-01-13T12:23:20.479Z,94882.00
2023-01-13T12:24:20.625Z,94880.00
2023-01-13T12:25:20.626Z,94874.00
2023-01-13T12:26:20.422Z,94876.00
2023-01-13T12:27:20.418Z,94874.00
2023-01-13T12:28:20.476Z,94874.00
2023-01-13T12:29:20.414Z,94870.00
2023-01-13T12:30:20.382Z,94870.00
2023-01-13T12:31:20.439Z,94868.00
2023-01-13T12:32:20.359Z,94868.00
2023-01-13T12:33:20.352Z,94870.00
2023-01-13T12:34:20.612Z,94864.00
2023-01-13T12:35:20.364Z,94862.00
2023-01-13T12:36:20.330Z,94864.00
2023-01-13T12:37:20.325Z,94866.00
2023-01-13T12:38:20.393Z,94864.00
2023-01-13T12:39:20.294Z,94862.00
2023-01-13T12:40:20.293Z,94860.00
2023-01-13T12:41:20.288Z,94856.00
2023-01-13T12:42:20.276Z,94850.00
2023-01-13T12:43:20.266Z,94848.00
2023-01-13T12:44:20.260Z,94846.00
2023-01-13T12:45:20.244Z,94846.00
2023-01-13T12:46:20.236Z,94846.00
2023-01-13T12:47:20.226Z,94844.00
2023-01-13T12:48:20.217Z,94852.00
2023-01-13T12:49:20.227Z,94856.00
2023-01-13T12:50:20.207Z,94854.00
2023-01-13T12:51:20.198Z,94854.00
2023-01-13T12:52:20.181Z,94850.00
2023-01-13T12:53:20.188Z,94852.00
2023-01-13T12:55:20.167Z,94854.00
2023-01-13T12:56:20.153Z,94854.00
2023-01-13T12:57:20.141Z,94852.00
2023-01-13T12:58:20.135Z,94854.00
2023-01-13T12:59:20.121Z,94852.00
2023-01-13T13:00:20.120Z,94854.00
2023-01-13T13:01:20.185Z,94850.00
2023-01-13T13:02:20.298Z,94850.00
2023-01-13T13:03:20.091Z,94848.00
2023-01-13T13:04:20.103Z,94843.00
2023-01-13T13:05:20.116Z,94846.00
2023-01-13T13:06:20.114Z,94846.00
2023-01-13T13:07:20.112Z,94848.00
2023-01-13T13:08:20.044Z,94852.00
2023-01-13T13:09:20.062Z,94848.00
2023-01-13T13:10:20.054Z,94844.00
2023-01-13T13:11:20.119Z,94843.00
2023-01-13T13:12:20.019Z,94843.00
2023-01-13T13:13:20.021Z,94844.00
2023-01-13T13:14:19.994Z,94852.00
2023-01-13T13:15:20.043Z,94850.00
2023-01-13T13:16:20.050Z,94843.00
2023-01-13T13:17:19.998Z,94844.00
2023-01-13T13:18:19.957Z,94843.00
2023-01-13T13:19:19.955Z,94844.00
2023-01-13T13:20:19.945Z,94848.00
2023-01-13T13:21:19.924Z,94852.00
2023-01-13T13:22:19.920Z,94852.00
2023-01-13T13:23:20.126Z,94850.00
2023-01-13T13:24:20.125Z,94852.00
2023-01-13T13:25:19.893Z,94852.00
2023-01-13T13:26:19.923Z,94854.00
2023-01-13T13:27:19.874Z,94858.00
2023-01-13T13:28:19.865Z,94858.00
2023-01-13T13:29:20.146Z,94854.00
2023-01-13T13:30:19.856Z,94852.00
2023-01-13T13:31:19.897Z,94854.00
2023-01-13T13:32:19.831Z,94852.00
2023-01-13T13:33:19.820Z,94854.00
2023-01-13T13:35:19.799Z,94854.00
2023-01-13T13:36:19.787Z,94858.00
2023-01-13T13:37:19.781Z,94852.00
2023-01-13T13:38:19.773Z,94850.00
2023-01-13T13:39:19.770Z,94848.00
2023-01-13T13:40:19.755Z,94848.00
2023-01-13T13:41:19.753Z,94848.00
2023-01-13T13:51:19.670Z,94866.00
2023-01-13T13:55:19.692Z,94880.00
2023-01-13T13:58:19.668Z,94882.00
2023-01-13T15:04:18.975Z,94946.00
2023-01-13T19:10:16.874Z,95342.00
2023-01-13T19:11:16.869Z,95336.00
2023-01-13T19:12:16.863Z,95334.00
2023-01-13T19:13:16.856Z,95333.00
2023-01-13T19:14:16.851Z,95336.00
2023-01-13T19:15:16.832Z,95336.00
2023-01-13T19:16:16.824Z,95338.00
2023-01-13T19:17:16.823Z,95338.00
2023-01-13T19:18:16.832Z,95336.00
2023-01-13T19:19:16.818Z,95336.00
2023-01-13T19:20:16.803Z,95338.00
2023-01-13T19:21:16.782Z,95340.00
2023-01-13T19:22:16.778Z,95346.00
2023-01-13T19:23:16.765Z,95348.00
2023-01-13T19:24:16.760Z,95352.00
2023-01-13T19:25:16.757Z,95356.00
2023-01-13T19:26:16.744Z,95360.00
2023-01-13T19:27:16.737Z,95358.00
2023-01-13T19:28:16.735Z,95364.00
2023-01-13T19:29:16.712Z,95364.00
2023-01-13T19:30:16.705Z,95362.00
2023-01-13T19:31:16.734Z,95366.00
2023-01-13T19:32:16.690Z,95370.00
2023-01-13T19:33:16.684Z,95368.00
2023-01-13T19:34:16.762Z,95370.00
2023-01-13T19:35:16.671Z,95370.00
2023-01-13T19:36:16.652Z,95376.00
2023-01-13T19:37:16.643Z,95380.00
2023-01-13T19:38:16.644Z,95381.00
2023-01-13T19:39:16.628Z,95385.00
2023-01-13T19:40:16.647Z,95385.00
2023-01-13T19:41:16.616Z,95383.00
2023-01-13T19:42:16.602Z,95381.00
2023-01-13T19:43:16.597Z,95383.00
2023-01-13T19:44:16.583Z,95380.00
2023-01-13T19:45:16.583Z,95378.00
2023-01-13T19:46:16.598Z,95376.00
2023-01-13T19:47:16.560Z,95374.00
2023-01-13T19:48:16.571Z,95374.00
2023-01-13T19:49:16.544Z,95374.00
2023-01-13T19:50:16.663Z,95378.00
2023-01-13T19:51:16.533Z,95374.00
2023-01-13T19:52:16.523Z,95374.00
2023-01-13T19:53:16.512Z,95372.00
2023-01-13T19:54:16.502Z,95366.00
2023-01-13T19:55:16.493Z,95366.00
2023-01-13T19:56:16.488Z,95368.00
2023-01-13T19:57:16.484Z,95374.00
2023-01-13T19:58:16.463Z,95381.00
2023-01-13T19:59:16.455Z,95389.00
2023-01-13T20:00:16.445Z,95393.00
2023-01-13T20:01:16.546Z,95393.00
2023-01-13T20:02:16.563Z,95393.00
2023-01-13T20:03:16.425Z,95389.00
2023-01-13T20:04:16.420Z,95385.00
2023-01-13T20:05:16.409Z,95378.00
2023-01-13T20:06:16.427Z,95372.00
2023-01-13T20:07:16.402Z,95364.00
2023-01-13T20:08:16.406Z,95360.00
2023-01-13T20:09:16.381Z,95358.00
2023-01-13T20:10:16.363Z,95352.00
2023-01-13T20:11:16.356Z,95358.00
2023-01-13T20:12:16.353Z,95354.00
2023-01-13T20:13:16.345Z,95352.00
2023-01-13T20:14:16.341Z,95350.00
2023-01-13T20:15:16.415Z,95344.00
2023-01-13T20:16:16.375Z,95342.00
2023-01-13T20:17:16.313Z,95340.00
2023-01-13T20:18:16.302Z,95346.00
2023-01-13T20:19:16.289Z,95348.00
2023-01-13T20:20:16.287Z,95352.00
2023-01-13T20:21:16.275Z,95354.00
2023-01-13T20:22:16.295Z,95354.00
2023-01-13T20:23:16.254Z,95358.00
2023-01-13T20:24:16.243Z,95358.00
2023-01-13T20:25:16.307Z,95360.00
2023-01-13T20:26:16.227Z,95362.00
2023-01-13T20:27:16.222Z,95370.00
2023-01-13T20:28:16.209Z,95372.00
2023-01-13T20:29:16.206Z,95378.00
2023-01-13T20:30:16.189Z,95376.00
2023-01-13T20:31:16.224Z,95380.00
2023-01-13T20:32:16.189Z,95383.00
2023-01-13T20:33:16.168Z,95385.00
2023-01-13T20:34:16.171Z,95391.00
2023-01-13T20:35:16.156Z,95397.00
2023-01-13T20:36:16.149Z,95403.00
2023-01-13T20:37:16.130Z,95413.00
2023-01-13T20:38:16.152Z,95417.00
2023-01-13T20:39:16.122Z,95417.00
2023-01-13T20:40:16.106Z,95417.00
2023-01-13T20:41:16.103Z,95419.00
2023-01-13T20:42:16.089Z,95419.00
2023-01-13T20:43:17.662Z,95421.00
2023-01-13T21:59:15.607Z,95497.00
2023-01-13T22:00:15.607Z,95495.00
2023-01-13T22:01:15.686Z,95499.00
2023-01-13T22:02:23.770Z,95505.00
